Time;durP1;ratioP1;P1;durP2;ratioP2;P2;SDS_P1;SDS_P2;PMS_P1;PMS_P2;Temp;Humidity;BMP_temperature;BMP_pressure;BME280_temperature;BME280_humidity;BME280_pressure;Samples;Min_cycle;Max_cycle;Signal;HPM_P1;HPM_P2
2022/07/12 00:01:03;;;;;;;1.55;1.33;;;12.30;99.90;;;;;;5017949;28;20173;-81
2022/07/12 00:03:29;;;;;;;2.72;1.50;;;12.30;99.90;;;;;;5036213;28;20689;-82
2022/07/12 00:05:56;;;;;;;2.88;1.63;;;12.30;99.90;;;;;;5034051;28;20701;-81
2022/07/12 00:08:22;;;;;;;2.30;1.55;;;12.20;99.90;;;;;;5016137;28;20583;-81
2022/07/12 00:10:47;;;;;;;1.88;1.67;;;12.20;99.90;;;;;;5016267;28;20176;-81
2022/07/12 00:13:13;;;;;;;2.22;1.67;;;12.90;99.90;;;;;;5016277;28;20535;-81
2022/07/12 00:15:38;;;;;;;1.52;1.42;;;12.30;99.90;;;;;;5033877;28;20177;-81
2022/07/12 00:18:04;;;;;;;2.33;1.52;;;12.20;99.90;;;;;;5033881;28;20181;-81
2022/07/12 00:20:30;;;;;;;2.08;1.67;;;12.20;99.90;;;;;;5015697;28;20268;-81
2022/07/12 00:22:55;;;;;;;2.75;1.88;;;12.20;99.90;;;;;;4999550;28;20653;-82
2022/07/12 00:25:21;;;;;;;2.33;1.90;;;12.20;99.90;;;;;;5032844;28;20228;-81
2022/07/12 00:27:47;;;;;;;2.28;1.83;;;12.60;99.90;;;;;;5033525;28;20215;-81
2022/07/12 00:30:12;;;;;;;2.00;1.50;;;12.20;99.90;;;;;;5015849;28;20641;-84
2022/07/12 00:32:38;;;;;;;3.75;1.95;;;12.20;99.90;;;;;;5032218;28;20267;-81
2022/07/12 00:35:07;;;;;;;1.95;1.63;;;12.20;99.90;;;;;;5033448;28;20537;-81
2022/07/12 00:37:33;;;;;;;2.25;1.92;;;12.20;99.90;;;;;;5033220;28;20203;-81
2022/07/12 00:39:59;;;;;;;3.45;1.80;;;12.20;99.90;;;;;;5033088;28;20176;-81
2022/07/12 00:42:26;;;;;;;2.53;1.85;;;12.10;99.90;;;;;;5032932;28;20177;-81
2022/07/12 00:44:52;;;;;;;2.33;1.85;;;12.10;99.90;;;;;;5033700;28;20180;-81
2022/07/12 00:47:36;;;;;;;1.83;1.42;;;12.10;99.90;;;;;;5033502;28;20177;-81
2022/07/12 00:50:04;;;;;;;1.98;1.60;;;12.10;99.90;;;;;;5033317;28;20157;-81
2022/07/12 00:52:30;;;;;;;2.72;2.25;;;12.20;99.90;;;;;;5032951;28;20191;-81
2022/07/12 00:54:56;;;;;;;2.78;1.67;;;12.20;99.90;;;;;;5033204;28;20180;-81
2022/07/12 00:57:21;;;;;;;1.92;1.80;;;12.80;99.90;;;;;;5033238;28;20697;-82
2022/07/12 00:59:47;;;;;;;5.25;2.42;;;12.00;99.90;;;;;;4999045;28;20275;-82
2022/07/12 01:02:13;;;;;;;2.33;1.70;;;12.00;99.90;;;;;;4999247;28;20196;-81
2022/07/12 01:04:39;;;;;;;3.13;1.52;;;12.00;99.90;;;;;;5032539;28;20553;-81
2022/07/12 01:07:05;;;;;;;2.13;1.67;;;12.00;99.90;;;;;;5015909;28;20656;-81
2022/07/12 01:09:31;;;;;;;2.25;2.05;;;12.00;99.90;;;;;;5033135;28;20263;-81
2022/07/12 01:11:57;;;;;;;3.40;2.03;;;12.00;99.90;;;;;;5000446;28;20238;-82
2022/07/12 01:14:23;;;;;;;1.65;1.55;;;12.00;99.90;;;;;;5015379;28;20184;-82
2022/07/12 01:16:50;;;;;;;1.92;1.80;;;11.90;99.90;;;;;;5033163;28;20180;-82
2022/07/12 01:19:20;;;;;;;2.10;1.90;;;12.00;99.90;;;;;;5032804;28;20184;-81
2022/07/12 01:21:50;;;;;;;2.90;1.90;;;12.00;99.90;;;;;;5015627;28;20176;-81
2022/07/12 01:24:18;;;;;;;3.33;1.92;;;11.90;99.90;;;;;;5033265;28;20235;-81
2022/07/12 01:26:44;;;;;;;2.03;1.60;;;11.90;99.90;;;;;;5032901;28;20169;-82
2022/07/12 01:29:10;;;;;;;2.85;1.80;;;11.90;99.90;;;;;;5015380;28;20180;-81
2022/07/12 01:31:36;;;;;;;6.72;2.05;;;12.30;99.90;;;;;;5032559;28;20641;-81
2022/07/12 01:34:03;;;;;;;2.83;1.83;;;11.90;99.90;;;;;;5032902;28;20258;-81
2022/07/12 01:36:30;;;;;;;2.67;1.98;;;11.80;99.90;;;;;;5014867;28;20223;-81
2022/07/12 01:38:55;;;;;;;1.90;1.63;;;11.80;99.90;;;;;;5032962;28;20177;-81
2022/07/12 01:41:23;;;;;;;2.42;2.00;;;12.10;99.90;;;;;;5015527;28;20184;-82
2022/07/12 01:43:49;;;;;;;3.38;2.53;;;11.60;99.90;;;;;;5015280;28;20253;-81
2022/07/12 01:46:15;;;;;;;3.00;1.90;;;11.60;99.90;;;;;;5032556;28;20177;-81
2022/07/12 01:48:41;;;;;;;2.95;2.20;;;;;;;;;;5032681;28;20181;-82
2022/07/12 01:51:07;;;;;;;2.85;2.13;;;11.70;99.90;;;;;;5015225;28;20626;-81
2022/07/12 01:53:34;;;;;;;2.47;1.70;;;11.70;99.90;;;;;;5018345;28;20180;-82
2022/07/12 01:55:59;;;;;;;2.33;1.83;;;11.60;99.90;;;;;;5035209;28;20587;-82
2022/07/12 01:58:25;;;;;;;3.10;1.63;;;11.60;99.90;;;;;;5018381;28;20176;-84
2022/07/12 02:00:52;;;;;;;2.65;2.00;;;11.60;99.90;;;;;;5036327;28;20177;-82
2022/07/12 02:03:20;;;;;;;2.45;1.70;;;11.60;99.90;;;;;;5002644;28;20255;-82
2022/07/12 02:05:46;;;;;;;2.22;1.83;;;11.60;99.90;;;;;;5035946;28;20208;-82
2022/07/12 02:08:15;;;;;;;1.90;1.70;;;11.60;99.90;;;;;;5036154;28;20583;-82
2022/07/12 02:10:42;;;;;;;2.80;2.05;;;11.60;99.90;;;;;;5035837;28;20188;-82
2022/07/12 02:13:08;;;;;;;1.60;1.50;;;11.60;99.90;;;;;;5035902;28;20185;-82
2022/07/12 02:15:33;;;;;;;1.85;1.63;;;11.70;99.90;;;;;;5017739;28;20551;-82
2022/07/12 02:17:59;;;;;;;2.65;1.38;;;11.70;99.90;;;;;;5018473;28;20181;-82
2022/07/12 02:20:25;;;;;;;2.63;2.00;;;11.70;99.90;;;;;;5018247;28;20701;-82
2022/07/12 02:22:51;;;;;;;1.45;1.35;;;11.70;99.90;;;;;;5035719;28;20204;-82
2022/07/12 02:25:16;;;;;;;2.58;1.60;;;11.70;99.90;;;;;;5001105;28;20632;-82
2022/07/12 02:27:43;;;;;;;2.05;1.67;;;11.70;99.90;;;;;;4998564;28;20205;-81
2022/07/12 02:30:10;;;;;;;2.00;1.80;;;11.70;99.90;;;;;;4998832;28;20181;-82
2022/07/12 02:32:37;;;;;;;1.80;1.70;;;11.70;99.90;;;;;;4982208;28;20537;-82
2022/07/12 02:35:06;;;;;;;3.45;2.63;;;11.70;99.90;;;;;;4998375;28;20673;-83
2022/07/12 02:37:32;;;;;;;1.67;1.58;;;11.80;99.90;;;;;;5015491;28;20272;-82
2022/07/12 02:42:44;;;;;;;2.70;1.83;;;11.80;99.90;;;;;;4985073;28;20224;-81
2022/07/12 02:45:10;;;;;;;4.22;1.77;;;11.80;99.90;;;;;;5015953;28;20189;-81
2022/07/12 02:47:39;;;;;;;2.33;1.80;;;11.90;99.90;;;;;;4998341;28;20242;-82
2022/07/12 02:50:06;;;;;;;2.90;2.15;;;11.90;99.90;;;;;;5016045;28;20182;-81
2022/07/12 02:52:32;;;;;;;2.63;1.83;;;11.90;99.90;;;;;;5015345;28;20646;-83
2022/07/12 02:54:58;;;;;;;2.47;1.90;;;11.90;99.90;;;;;;5015809;28;20208;-82
2022/07/12 02:57:24;;;;;;;1.92;1.83;;;11.90;99.90;;;;;;5015771;28;20208;-82
2022/07/12 02:59:49;;;;;;;2.53;2.05;;;11.90;99.90;;;;;;4998002;28;20193;-82
2022/07/12 03:02:15;;;;;;;5.82;2.80;;;11.90;99.90;;;;;;5015311;28;20653;-81
2022/07/12 03:04:41;;;;;;;7.25;2.90;;;11.80;99.90;;;;;;5016148;28;20177;-82
2022/07/12 03:07:06;;;;;;;2.88;2.30;;;12.30;99.90;;;;;;4999975;28;20661;-82
2022/07/12 03:09:32;;;;;;;4.03;2.97;;;11.90;99.90;;;;;;4999534;28;20181;-81
2022/07/12 03:11:57;;;;;;;3.25;2.65;;;11.80;99.90;;;;;;5017333;28;20185;-82
2022/07/12 03:14:23;;;;;;;2.92;2.05;;;11.80;99.90;;;;;;5027510;28;20178;-82
2022/07/12 03:16:49;;;;;;;4.05;2.67;;;11.90;99.90;;;;;;5022454;28;20292;-82
2022/07/12 03:19:15;;;;;;;9.00;4.25;;;11.90;99.90;;;;;;5039933;28;20166;-81
2022/07/12 03:21:40;;;;;;;5.43;3.35;;;11.90;99.90;;;;;;5039783;28;20188;-82
2022/07/12 03:24:06;;;;;;;4.07;3.15;;;12.20;99.90;;;;;;5037319;28;20279;-81
2022/07/12 03:26:32;;;;;;;4.25;3.20;;;12.60;99.90;;;;;;5020387;28;20208;-81
2022/07/12 03:29:00;;;;;;;6.18;3.53;;;12.00;99.90;;;;;;5046263;28;20177;-81
2022/07/12 03:31:26;;;;;;;3.78;3.17;;;12.00;99.90;;;;;;5058669;28;20181;-82
2022/07/12 03:33:52;;;;;;;3.92;2.95;;;12.10;99.90;;;;;;5059143;28;20207;-82
2022/07/12 03:36:17;;;;;;;6.78;2.90;;;12.10;99.90;;;;;;5038430;28;20196;-81
2022/07/12 03:38:43;;;;;;;5.28;3.40;;;12.10;99.90;;;;;;5036048;28;20172;-82
2022/07/12 03:41:09;;;;;;;4.95;3.63;;;12.10;99.90;;;;;;5036039;28;20665;-80
2022/07/12 03:43:34;;;;;;;3.75;2.97;;;12.20;99.90;;;;;;5017422;28;20208;-82
2022/07/12 03:46:00;;;;;;;6.80;3.60;;;12.30;99.90;;;;;;5000752;28;20188;-81
2022/07/12 03:48:25;;;;;;;5.90;3.65;;;12.30;99.90;;;;;;5000551;28;20187;-81
2022/07/12 03:50:51;;;;;;;4.05;3.08;;;12.40;99.90;;;;;;5034256;28;20192;-82
2022/07/12 03:53:17;;;;;;;8.02;4.25;;;12.40;99.90;;;;;;5034030;28;20192;-82
2022/07/12 03:55:42;;;;;;;5.38;4.00;;;12.50;99.90;;;;;;5016318;28;20198;-82
2022/07/12 03:58:08;;;;;;;6.45;4.13;;;12.50;99.90;;;;;;5034211;28;20275;-82
2022/07/12 04:00:34;;;;;;;5.45;3.05;;;12.60;99.90;;;;;;5016190;28;20195;-82
2022/07/12 04:02:59;;;;;;;5.43;3.95;;;12.60;99.90;;;;;;5015816;28;20300;-81
2022/07/12 04:05:28;;;;;;;4.22;3.60;;;12.70;99.90;;;;;;5034063;28;20184;-82
2022/07/12 04:07:54;;;;;;;5.82;3.95;;;12.70;99.90;;;;;;5032580;28;20538;-83
2022/07/12 04:10:20;;;;;;;4.72;3.72;;;12.70;99.90;;;;;;5000267;28;20246;-83
2022/07/12 04:12:46;;;;;;;6.78;4.00;;;12.70;99.90;;;;;;5033998;28;20271;-83
2022/07/12 04:15:12;;;;;;;7.20;4.47;;;12.80;99.90;;;;;;5033398;28;20230;-83
2022/07/12 04:17:37;;;;;;;6.32;4.10;;;12.90;99.90;;;;;;4999974;28;20181;-83
2022/07/12 04:20:04;;;;;;;7.43;4.53;;;12.90;99.90;;;;;;5015800;28;20512;-83
2022/07/12 04:22:30;;;;;;;8.60;4.78;;;12.90;99.90;;;;;;5033576;28;20188;-83
2022/07/12 04:24:56;;;;;;;8.23;4.88;;;12.90;99.90;;;;;;5015675;28;20232;-83
2022/07/12 04:27:21;;;;;;;6.40;4.45;;;13.00;99.90;;;;;;5047961;28;20179;-82
2022/07/12 04:29:47;;;;;;;6.30;4.63;;;13.00;99.90;;;;;;5050900;28;20222;-82
2022/07/12 04:32:13;;;;;;;6.50;5.05;;;13.00;99.90;;;;;;5033456;28;20176;-82
2022/07/12 04:34:38;;;;;;;5.85;4.75;;;13.00;99.90;;;;;;5015392;28;20564;-82
2022/07/12 04:37:04;;;;;;;6.50;4.40;;;13.00;99.90;;;;;;4998980;28;20188;-83
2022/07/12 04:39:29;;;;;;;8.63;4.40;;;13.10;99.90;;;;;;4999464;28;20199;-83
2022/07/12 04:41:55;;;;;;;5.35;3.75;;;13.10;99.90;;;;;;5032890;28;20699;-81
2022/07/12 04:44:20;;;;;;;8.00;4.03;;;13.30;99.90;;;;;;5004893;28;20220;-82
2022/07/12 04:46:46;;;;;;;5.80;4.05;;;13.20;99.90;;;;;;5036147;28;20180;-82
2022/07/12 04:49:12;;;;;;;5.97;4.63;;;13.20;99.90;;;;;;5039984;28;20186;-82
2022/07/12 04:51:37;;;;;;;5.40;4.03;;;13.30;99.90;;;;;;5054744;28;20180;-82
2022/07/12 04:54:03;;;;;;;6.95;5.05;;;13.30;99.90;;;;;;5035152;28;20633;-84
2022/07/12 04:56:29;;;;;;;6.32;4.78;;;13.30;99.90;;;;;;5035185;28;20648;-83
2022/07/12 04:58:54;;;;;;;7.07;4.88;;;13.40;99.90;;;;;;5018937;28;20207;-82
2022/07/12 05:01:20;;;;;;;6.22;3.88;;;13.40;99.90;;;;;;5033414;28;20172;-82
2022/07/12 05:03:47;;;;;;;5.65;4.65;;;13.40;99.90;;;;;;5015404;28;20215;-82
2022/07/12 05:06:12;;;;;;;6.03;4.53;;;13.30;99.90;;;;;;5032362;28;20179;-82
2022/07/12 05:08:38;;;;;;;6.55;4.65;;;13.40;99.90;;;;;;5032448;28;20181;-82
2022/07/12 05:11:04;;;;;;;7.30;4.75;;;13.40;99.90;;;;;;4998070;28;20180;-82
2022/07/12 05:13:30;;;;;;;7.05;4.65;;;13.40;99.90;;;;;;5032098;28;20188;-82
2022/07/12 05:15:56;;;;;;;6.93;4.90;;;13.40;99.90;;;;;;5025447;28;20180;-81
2022/07/12 05:18:22;;;;;;;6.20;4.60;;;13.50;99.90;;;;;;5052286;28;20350;-82
2022/07/12 05:20:47;;;;;;;7.85;4.97;;;13.50;99.90;;;;;;5052205;28;20187;-82
2022/07/12 05:23:13;;;;;;;6.38;4.78;;;13.50;99.90;;;;;;5051548;28;20218;-82
2022/07/12 05:25:39;;;;;;;7.60;5.38;;;;;;;;;;5053194;28;20237;-83
2022/07/12 05:28:04;;;;;;;5.38;4.50;;;13.60;99.90;;;;;;5056116;28;20187;-81
2022/07/12 05:30:30;;;;;;;7.55;5.03;;;13.60;99.90;;;;;;5056600;28;20255;-82
2022/07/12 05:32:56;;;;;;;8.02;4.97;;;13.50;99.90;;;;;;5038615;28;20220;-81
2022/07/12 05:35:21;;;;;;;8.35;5.45;;;13.50;99.90;;;;;;5038678;28;20172;-82
2022/07/12 05:37:47;;;;;;;8.02;4.53;;;13.60;99.90;;;;;;5056276;28;20176;-82
2022/07/12 05:40:13;;;;;;;6.18;4.25;;;13.60;99.90;;;;;;5056293;28;20621;-82
2022/07/12 05:42:38;;;;;;;8.02;5.35;;;13.60;99.90;;;;;;5056231;28;20521;-82
2022/07/12 05:45:05;;;;;;;7.60;4.15;;;13.60;99.90;;;;;;5037708;28;20186;-83
2022/07/12 05:47:31;;;;;;;7.40;4.68;;;13.70;99.90;;;;;;5037887;28;20183;-82
2022/07/12 05:49:57;;;;;;;8.77;4.13;;;13.70;99.90;;;;;;5021062;28;20178;-82
2022/07/12 05:55:07;;;;;;;7.10;4.15;;;13.60;99.90;;;;;;5054092;28;20214;-80
2022/07/12 05:57:33;;;;;;;7.25;4.95;;;13.60;99.90;;;;;;5054946;28;20267;-80
2022/07/12 05:59:58;;;;;;;7.47;5.00;;;13.70;99.90;;;;;;5037890;28;20562;-82
2022/07/12 06:02:24;;;;;;;7.88;4.97;;;13.70;99.90;;;;;;5055596;28;20636;-81
2022/07/12 06:04:50;;;;;;;9.30;5.05;;;13.80;99.90;;;;;;5055639;28;20258;-81
2022/07/12 06:07:16;;;;;;;7.75;4.57;;;13.80;99.90;;;;;;5037516;28;20183;-80
2022/07/12 06:09:42;;;;;;;7.40;4.95;;;13.90;99.90;;;;;;5037467;28;20568;-81
2022/07/12 06:12:07;;;;;;;6.53;4.07;;;13.90;99.90;;;;;;5037161;28;20257;-82
2022/07/12 06:14:33;;;;;;;6.43;5.18;;;14.00;99.90;;;;;;5045388;28;20187;-80
2022/07/12 06:16:59;;;;;;;7.72;4.47;;;14.10;99.90;;;;;;5043048;28;20194;-80
2022/07/12 06:19:26;;;;;;;10.32;4.85;;;14.10;99.90;;;;;;5033469;28;20199;-81
2022/07/12 06:21:52;;;;;;;5.00;4.20;;;14.30;99.90;;;;;;5045264;28;20646;-81
2022/07/12 06:24:17;;;;;;;6.80;4.18;;;14.40;99.90;;;;;;5047955;28;20282;-81
2022/07/12 06:26:43;;;;;;;5.63;4.30;;;14.40;99.90;;;;;;5031344;28;20548;-79
2022/07/12 06:29:09;;;;;;;5.32;4.07;;;14.50;99.90;;;;;;5024748;28;20199;-80
2022/07/12 06:31:34;;;;;;;5.78;3.50;;;14.50;99.90;;;;;;5030976;28;20199;-80
2022/07/12 06:34:01;;;;;;;5.47;3.60;;;14.50;99.90;;;;;;5025099;28;20204;-79
2022/07/12 06:36:26;;;;;;;6.57;4.57;;;14.50;99.90;;;;;;5039029;28;20199;-79
2022/07/12 06:38:52;;;;;;;4.78;3.30;;;14.50;99.90;;;;;;5029042;28;20556;-79
2022/07/12 06:41:18;;;;;;;6.35;4.45;;;14.50;99.90;;;;;;5042803;28;20253;-78
2022/07/12 06:43:43;;;;;;;5.57;3.95;;;14.40;99.90;;;;;;5050594;28;20554;-81
2022/07/12 06:46:09;;;;;;;6.22;3.83;;;14.50;99.90;;;;;;5044158;28;20194;-80
2022/07/12 06:48:34;;;;;;;5.35;3.88;;;14.50;99.90;;;;;;5034870;28;20671;-81
2022/07/12 06:51:00;;;;;;;5.93;3.85;;;14.60;99.90;;;;;;5035155;28;20185;-81
2022/07/12 06:53:26;;;;;;;5.03;3.50;;;14.60;99.90;;;;;;5036230;28;20188;-82
2022/07/12 06:55:51;;;;;;;4.90;2.80;;;14.70;99.90;;;;;;5029836;28;20185;-80
2022/07/12 06:58:17;;;;;;;4.03;2.88;;;14.70;99.90;;;;;;5030991;28;20191;-82
2022/07/12 07:00:43;;;;;;;5.35;3.35;;;14.70;99.90;;;;;;5043863;28;20657;-81
2022/07/12 07:03:08;;;;;;;5.25;3.03;;;14.70;99.90;;;;;;5044174;28;20681;-83
2022/07/12 07:05:36;;;;;;;5.90;3.83;;;14.80;99.90;;;;;;5058260;28;20717;-80
2022/07/12 07:08:02;;;;;;;8.32;3.10;;;14.80;99.90;;;;;;5055307;28;20207;-81
2022/07/12 07:10:28;;;;;;;5.78;2.63;;;14.70;99.90;;;;;;5052762;28;20176;-81
2022/07/12 07:12:54;;;;;;;6.07;2.85;;;14.70;99.90;;;;;;5052089;28;20242;-81
2022/07/12 07:15:19;;;;;;;4.03;2.95;;;14.70;99.90;;;;;;5030678;28;20649;-81
2022/07/12 07:17:45;;;;;;;4.75;3.35;;;14.80;99.90;;;;;;5052829;28;20184;-81
2022/07/12 07:20:11;;;;;;;4.82;3.00;;;14.80;99.90;;;;;;5034321;28;20191;-81
2022/07/12 07:22:38;;;;;;;4.95;3.20;;;14.90;99.90;;;;;;5050768;28;20676;-81
2022/07/12 07:25:05;;;;;;;6.60;3.05;;;15.00;99.90;;;;;;5052571;28;20219;-82
2022/07/12 07:27:30;;;;;;;4.28;3.10;;;15.00;99.90;;;;;;5042649;28;20180;-80
2022/07/12 07:32:40;;;;;;;4.40;2.80;;;14.90;99.90;;;;;;5051993;28;20210;-80
2022/07/12 07:35:06;;;;;;;4.93;3.20;;;14.90;99.90;;;;;;5052499;28;20624;-83
2022/07/12 07:37:33;;;;;;;2.95;2.38;;;15.00;99.90;;;;;;5052193;28;20180;-84
2022/07/12 07:39:59;;;;;;;2.80;2.28;;;15.00;99.90;;;;;;5051018;28;20183;-81
2022/07/12 07:42:25;;;;;;;3.30;2.47;;;14.90;99.90;;;;;;5051784;28;20553;-81
2022/07/12 07:44:50;;;;;;;4.47;2.78;;;15.00;99.90;;;;;;5049774;28;20264;-81
2022/07/12 07:47:16;;;;;;;2.40;2.15;;;15.10;99.90;;;;;;5052114;28;20194;-81
2022/07/12 07:49:41;;;;;;;4.97;2.50;;;15.30;99.90;;;;;;5029183;28;20196;-82
2022/07/12 07:52:07;;;;;;;3.03;2.70;;;15.50;99.90;;;;;;5035514;28;20200;-84
2022/07/12 07:54:33;;;;;;;4.00;2.78;;;15.60;99.90;;;;;;5031040;28;20581;-83
2022/07/12 07:56:59;;;;;;;4.35;3.10;;;15.70;99.90;;;;;;5034626;28;20195;-83
2022/07/12 07:59:24;;;;;;;5.10;3.28;;;15.70;99.90;;;;;;5052137;28;20198;-83
2022/07/12 08:01:52;;;;;;;4.13;3.08;;;15.70;99.90;;;;;;5052476;28;20187;-83
2022/07/12 08:04:19;;;;;;;5.50;3.25;;;15.80;99.90;;;;;;5051890;28;20215;-83
2022/07/12 08:06:46;;;;;;;3.58;3.00;;;15.90;99.90;;;;;;5052335;28;20234;-83
2022/07/12 08:09:12;;;;;;;3.92;3.28;;;16.00;99.90;;;;;;5052049;28;20191;-83
2022/07/12 08:11:38;;;;;;;3.78;3.20;;;16.00;99.90;;;;;;5051720;28;20184;-81
2022/07/12 08:14:04;;;;;;;4.30;3.50;;;16.00;99.90;;;;;;5047815;28;20270;-82
2022/07/12 08:16:30;;;;;;;5.35;3.40;;;16.00;99.90;;;;;;5025613;28;20191;-83
2022/07/12 08:18:56;;;;;;;5.20;3.88;;;16.00;99.90;;;;;;5052257;28;20211;-80
2022/07/12 08:21:22;;;;;;;5.68;4.40;;;16.10;99.90;;;;;;5033669;28;20212;-82
2022/07/12 08:23:49;;;;;;;4.32;3.47;;;16.20;99.90;;;;;;5048494;28;20239;-82
2022/07/12 08:26:14;;;;;;;3.40;3.10;;;16.10;99.90;;;;;;5043831;28;20214;-82
2022/07/12 08:28:40;;;;;;;4.57;3.15;;;16.30;99.90;;;;;;5051904;28;20208;-83
2022/07/12 08:31:06;;;;;;;3.67;2.83;;;16.40;99.90;;;;;;5041676;28;20192;-83
2022/07/12 08:33:31;;;;;;;4.32;2.80;;;16.40;99.90;;;;;;5042587;28;20206;-83
2022/07/12 08:35:57;;;;;;;3.88;3.30;;;16.50;99.90;;;;;;5027640;28;20619;-83
2022/07/12 08:38:23;;;;;;;3.38;2.83;;;16.60;99.90;;;;;;5023099;28;20187;-83
2022/07/12 08:40:49;;;;;;;3.58;2.95;;;16.90;99.90;;;;;;5052132;28;20211;-83
2022/07/12 08:43:15;;;;;;;5.45;2.85;;;17.00;99.90;;;;;;5051767;28;20664;-83
2022/07/12 08:45:40;;;;;;;3.47;2.58;;;17.10;99.90;;;;;;5052202;28;20641;-83
2022/07/12 08:48:07;;;;;;;4.00;2.50;;;17.20;99.90;;;;;;5042000;28;20193;-83
2022/07/12 08:50:33;;;;;;;3.30;2.25;;;17.10;99.90;;;;;;5044035;28;20230;-83
2022/07/12 08:52:59;;;;;;;2.00;1.80;;;17.00;99.90;;;;;;5034629;28;20650;-84
2022/07/12 08:55:30;;;;;;;2.35;2.03;;;16.90;99.90;;;;;;5015240;28;20679;-82
2022/07/12 08:57:59;;;;;;;7.80;2.70;;;16.80;99.90;;;;;;5033463;28;20223;-82
2022/07/12 09:00:26;;;;;;;2.63;2.08;;;16.80;99.90;;;;;;5033024;28;20172;-83
2022/07/12 09:02:54;;;;;;;2.22;2.03;;;16.90;99.90;;;;;;5033545;28;20200;-83
2022/07/12 09:05:30;;;;;;;2.40;2.20;;;16.90;99.90;;;;;;5041417;28;20180;-83
2022/07/12 09:08:07;;;;;;;2.45;2.25;;;17.00;99.90;;;;;;5053243;28;20218;-82
2022/07/12 09:10:53;;;;;;;5.00;2.95;;;17.10;99.90;;;;;;5052892;28;20197;-81
2022/07/12 09:13:47;;;;;;;3.65;2.75;;;17.10;99.90;;;;;;5055976;28;20267;-81
2022/07/12 09:16:14;;;;;;;3.00;2.38;;;17.10;99.90;;;;;;5037873;28;20641;-82
2022/07/12 09:18:40;;;;;;;2.13;1.92;;;17.10;99.90;;;;;;5055412;28;20180;-82
2022/07/12 09:21:06;;;;;;;3.10;1.60;;;17.00;99.90;;;;;;5059380;28;20199;-82
2022/07/12 09:23:31;;;;;;;2.85;1.75;;;17.10;99.90;;;;;;5042920;28;20250;-83
2022/07/12 09:25:57;;;;;;;2.25;2.00;;;17.10;99.90;;;;;;5077439;28;20155;-83
2022/07/12 09:28:23;;;;;;;2.03;1.83;;;17.30;99.90;;;;;;5077160;28;20262;-82
2022/07/12 09:30:50;;;;;;;1.73;1.63;;;17.30;99.90;;;;;;5072389;28;20184;-81
2022/07/12 09:36:12;;;;;;;1.80;1.70;;;17.30;99.90;;;;;;5062221;28;20328;-81
2022/07/12 09:39:02;;;;;;;1.83;1.48;;;17.20;99.90;;;;;;5077198;28;20147;-82
2022/07/12 09:41:27;;;;;;;3.58;1.83;;;17.20;99.90;;;;;;5077523;28;20155;-87
2022/07/12 09:43:53;;;;;;;1.70;1.60;;;17.20;99.90;;;;;;5069860;28;20243;-81
2022/07/12 09:46:19;;;;;;;1.52;1.42;;;17.20;99.90;;;;;;5034971;28;20644;-81
2022/07/12 09:48:46;;;;;;;1.92;1.27;;;17.30;99.90;;;;;;5051218;28;20647;-83
2022/07/12 09:51:17;;;;;;;1.40;1.30;;;17.50;99.90;;;;;;5052845;28;20176;-81
2022/07/12 09:53:47;;;;;;;3.83;1.60;;;17.70;99.90;;;;;;5052636;28;20175;-81
2022/07/12 09:56:14;;;;;;;1.00;1.00;;;17.90;99.90;;;;;;5052652;28;20266;-83
2022/07/12 09:58:47;;;;;;;1.33;1.23;;;18.00;99.90;;;;;;5052680;28;20581;-83
2022/07/12 10:01:15;;;;;;;1.20;1.10;;;18.20;99.90;;;;;;5052935;28;20165;-84
2022/07/12 10:03:43;;;;;;;1.73;1.50;;;18.20;99.90;;;;;;5052547;28;20204;-82
2022/07/12 10:06:09;;;;;;;2.13;1.38;;;18.20;99.90;;;;;;5052741;28;20179;-82
2022/07/12 10:08:35;;;;;;;1.15;1.05;;;18.30;99.90;;;;;;5049779;28;20202;-83
2022/07/12 10:11:01;;;;;;;1.13;1.13;;;18.20;99.90;;;;;;5047703;28;20274;-83
2022/07/12 10:13:28;;;;;;;1.42;1.13;;;18.20;99.90;;;;;;5045276;28;20305;-82
2022/07/12 10:16:00;;;;;;;0.98;0.90;;;18.10;99.90;;;;;;5040855;28;20180;-81
2022/07/12 10:18:27;;;;;;;1.17;1.08;;;17.90;99.90;;;;;;5056102;28;20183;-83
2022/07/12 10:20:53;;;;;;;2.75;1.42;;;17.90;99.90;;;;;;5037821;28;20663;-82
2022/07/12 10:23:36;;;;;;;1.20;1.10;;;17.70;99.90;;;;;;5037738;28;20204;-83
2022/07/12 10:26:25;;;;;;;1.00;1.00;;;17.70;99.90;;;;;;5056054;28;20180;-82
2022/07/12 10:29:05;;;;;;;1.25;1.15;;;17.60;99.90;;;;;;5055827;28;20680;-82
2022/07/12 10:31:39;;;;;;;1.05;1.00;;;17.60;99.90;;;;;;5055755;28;20651;-83
2022/07/12 10:34:19;;;;;;;0.98;0.98;;;17.70;99.90;;;;;;5037904;28;20183;-82
2022/07/12 10:37:11;;;;;;;1.27;1.00;;;17.90;99.90;;;;;;5042718;28;20204;-84
2022/07/12 10:39:37;;;;;;;1.00;1.00;;;18.00;99.90;;;;;;5045144;28;20192;-83
2022/07/12 10:42:05;;;;;;;3.92;0.80;;;18.20;99.90;;;;;;5053736;28;20195;-83
2022/07/12 10:44:46;;;;;;;1.02;0.93;;;18.30;99.90;;;;;;5031680;28;20226;-83
2022/07/12 10:47:15;;;;;;;1.08;1.02;;;18.30;99.90;;;;;;5047824;28;20309;-84
2022/07/12 10:49:54;;;;;;;0.90;0.80;;;18.30;99.90;;;;;;5024034;28;20587;-82
2022/07/12 10:52:26;;;;;;;1.25;1.15;;;18.50;99.90;;;;;;5044083;28;20295;-83
2022/07/12 10:54:55;;;;;;;1.02;0.80;;;18.60;99.90;;;;;;5043999;28;20187;-83
2022/07/12 10:57:43;;;;;;;0.70;0.70;;;18.70;99.90;;;;;;5044643;28;20185;-83
2022/07/12 11:00:11;;;;;;;1.13;0.90;;;18.70;99.90;;;;;;5053486;28;20691;-83
2022/07/12 11:02:37;;;;;;;1.13;1.00;;;18.60;99.90;;;;;;5054598;28;20261;-82
2022/07/12 11:05:03;;;;;;;2.67;0.85;;;18.70;99.90;;;;;;5046440;28;20219;-83
2022/07/12 11:07:30;;;;;;;0.80;0.80;;;18.50;99.90;;;;;;5047942;28;20188;-84
2022/07/12 11:09:56;;;;;;;1.25;0.80;;;18.40;99.90;;;;;;5054694;28;20261;-84
2022/07/12 11:12:32;;;;;;;0.80;0.80;;;18.40;99.90;;;;;;5055138;28;20190;-83
2022/07/12 11:15:02;;;;;;;1.10;1.00;;;18.30;99.90;;;;;;5054883;28;20175;-81
2022/07/12 11:17:30;;;;;;;0.95;0.95;;;18.20;99.90;;;;;;5037333;28;20186;-82
2022/07/12 11:20:05;;;;;;;4.50;1.15;;;18.10;99.90;;;;;;5037247;28;20172;-85
2022/07/12 11:22:31;;;;;;;1.08;0.98;;;18.00;99.90;;;;;;5035194;28;20207;-82
2022/07/12 11:24:57;;;;;;;1.20;1.10;;;17.90;99.90;;;;;;5051251;28;20758;-82
2022/07/12 11:27:23;;;;;;;2.05;1.13;;;17.90;99.90;;;;;;5052104;28;20176;-83
2022/07/12 11:29:59;;;;;;;1.50;1.00;;;17.90;99.90;;;;;;5036369;28;20207;-82
2022/07/12 11:32:43;;;;;;;1.00;0.90;;;18.00;99.90;;;;;;5052449;28;20176;-81
2022/07/12 11:35:22;;;;;;;1.65;1.05;;;17.90;99.90;;;;;;5052103;28;20532;-83
2022/07/12 11:37:58;;;;;;;1.02;0.98;;;17.90;99.90;;;;;;5052107;28;20195;-81
2022/07/12 11:40:29;;;;;;;5.07;1.20;;;17.90;99.90;;;;;;5053970;28;20190;-83
2022/07/12 11:43:00;;;;;;;1.05;0.95;;;18.00;99.90;;;;;;5020317;28;20254;-81
2022/07/12 11:45:27;;;;;;;1.00;1.00;;;17.90;99.90;;;;;;5054065;28;20171;-83
2022/07/12 11:47:53;;;;;;;2.38;1.25;;;18.30;99.90;;;;;;5053884;28;20190;-84
2022/07/12 11:50:19;;;;;;;1.10;1.00;;;18.30;99.90;;;;;;5036339;28;20186;-83
2022/07/12 11:52:45;;;;;;;1.23;1.13;;;18.40;99.90;;;;;;5054016;28;20257;-84
2022/07/12 11:55:11;;;;;;;1.63;1.00;;;18.50;99.90;;;;;;5054055;28;20189;-84
2022/07/12 11:57:37;;;;;;;1.00;1.00;;;18.50;99.90;;;;;;5054567;28;20178;-85
2022/07/12 12:00:18;;;;;;;1.27;1.08;;;18.50;99.90;;;;;;5036632;28;20223;-85
2022/07/12 12:02:44;;;;;;;0.60;0.60;;;18.50;99.90;;;;;;5049351;28;20296;-84
2022/07/12 12:05:11;;;;;;;0.60;0.60;;;18.40;99.90;;;;;;5041167;28;20198;-83
2022/07/12 12:07:37;;;;;;;0.93;0.90;;;18.40;99.90;;;;;;5050334;28;20180;-83
2022/07/12 12:10:09;;;;;;;0.85;0.82;;;18.30;99.90;;;;;;5046629;28;20709;-82
2022/07/12 12:12:40;;;;;;;0.70;0.70;;;18.20;99.90;;;;;;5051944;28;20216;-81
2022/07/12 12:15:12;;;;;;;0.60;0.60;;;18.20;99.90;;;;;;5053485;28;20227;-81
2022/07/12 12:17:51;;;;;;;0.90;0.90;;;18.30;99.90;;;;;;5052555;28;20241;-80
2022/07/12 12:20:34;;;;;;;3.60;0.88;;;18.30;99.90;;;;;;5037758;28;20194;-81
2022/07/12 12:23:02;;;;;;;1.30;0.70;;;18.30;99.90;;;;;;5049972;28;20306;-81
2022/07/12 12:25:29;;;;;;;1.50;0.93;;;18.30;99.90;;;;;;5033786;28;20227;-82
2022/07/12 12:28:04;;;;;;;0.98;0.80;;;18.40;99.90;;;;;;5051653;28;20199;-83
2022/07/12 12:30:32;;;;;;;0.57;0.57;;;18.30;99.90;;;;;;5050637;28;20271;-82
2022/07/12 12:33:03;;;;;;;1.65;0.90;;;18.40;99.90;;;;;;5051088;28;20187;-83
2022/07/12 12:35:35;;;;;;;1.83;1.13;;;18.40;99.90;;;;;;5045483;28;20314;-82
2022/07/12 12:38:02;;;;;;;1.02;0.75;;;18.80;99.90;;;;;;5046190;28;20195;-81
2022/07/12 12:40:30;;;;;;;1.10;1.00;;;18.50;99.90;;;;;;5019253;28;20220;-84
2022/07/12 12:43:10;;;;;;;0.75;0.75;;;18.60;99.90;;;;;;5035150;28;20699;-85
2022/07/12 12:45:48;;;;;;;0.98;0.98;;;18.60;99.90;;;;;;5043575;28;20188;-84
2022/07/12 12:48:21;;;;;;;0.70;0.70;;;18.70;99.90;;;;;;5040553;28;20274;-82
2022/07/12 12:50:52;;;;;;;2.33;1.10;;;18.80;99.90;;;;;;5031996;28;20192;-81
2022/07/12 12:53:19;;;;;;;1.00;0.95;;;18.80;99.90;;;;;;5027794;28;20195;-83
2022/07/12 12:55:51;;;;;;;2.65;1.50;;;18.80;99.90;;;;;;5042733;28;20192;-83
2022/07/12 12:58:18;;;;;;;1.08;0.98;;;18.80;99.90;;;;;;5032797;28;20176;-83
2022/07/12 13:00:45;;;;;;;0.90;0.90;;;18.80;99.90;;;;;;5037083;28;20180;-84